createdAt,value
2022-07-28T00:01:46.722Z,23.95
2022-07-28T00:03:53.996Z,22.27
2022-07-28T00:06:01.379Z,23.73
2022-07-28T00:08:08.920Z,22.45
2022-07-28T00:10:16.573Z,23.35
2022-07-28T00:12:23.858Z,20.63
2022-07-28T00:14:31.240Z,18.92
2022-07-28T00:16:38.270Z,17.65
2022-07-28T00:18:47.451Z,17.15
2022-07-28T00:20:54.373Z,17.90
2022-07-28T00:23:01.809Z,17.27
2022-07-28T00:25:09.443Z,19.92
2022-07-28T00:27:19.386Z,19.00
2022-07-28T00:29:49.807Z,20.38
2022-07-28T00:31:53.945Z,19.75
2022-07-28T00:34:02.908Z,20.65
2022-07-28T00:36:11.805Z,20.77
2022-07-28T00:38:19.319Z,21.35
2022-07-28T00:40:54.501Z,19.35
2022-07-28T00:43:01.531Z,16.52
2022-07-28T00:45:09.580Z,18.60
2022-07-28T00:47:17.804Z,18.55
2022-07-28T00:49:26.557Z,18.30
2022-07-28T00:51:34.412Z,17.15
2022-07-28T00:53:42.304Z,18.08
2022-07-28T00:56:02.707Z,17.75
2022-07-28T00:58:14.224Z,19.50
2022-07-28T01:00:21.735Z,19.17
2022-07-28T01:02:29.147Z,22.27
2022-07-28T01:04:38.278Z,20.15
2022-07-28T01:07:11.475Z,21.58
2022-07-28T01:09:34.727Z,19.38
2022-07-28T01:11:52.050Z,15.77
2022-07-28T01:14:11.830Z,15.70
2022-07-28T01:16:22.809Z,15.27
2022-07-28T01:18:36.530Z,15.70
2022-07-28T01:20:48.895Z,15.57
2022-07-28T01:23:10.716Z,16.42
2022-07-28T01:25:26.810Z,17.02
2022-07-28T01:27:54.321Z,15.50
2022-07-28T01:30:11.729Z,16.65
2022-07-28T01:32:24.041Z,16.42
2022-07-28T01:34:35.511Z,17.02
2022-07-28T01:36:48.530Z,15.77
2022-07-28T01:38:56.943Z,15.77
2022-07-28T01:41:05.914Z,15.50
2022-07-28T01:43:18.126Z,15.05
2022-07-28T01:45:26.729Z,18.83
2022-07-28T01:47:36.834Z,15.55
2022-07-28T01:49:47.342Z,16.13
2022-07-28T01:51:57.233Z,16.57
2022-07-28T01:54:05.659Z,16.33
2022-07-28T01:56:14.772Z,16.95
2022-07-28T01:58:23.501Z,15.63
2022-07-28T02:00:32.544Z,16.20
2022-07-28T02:02:42.204Z,15.35
2022-07-28T02:04:51.602Z,16.77
2022-07-28T02:07:00.317Z,15.25
2022-07-28T02:09:09.443Z,15.30
2022-07-28T02:11:33.051Z,15.35
2022-07-28T02:13:42.950Z,17.83
2022-07-28T02:15:50.135Z,15.05
2022-07-28T02:18:00.287Z,16.33
2022-07-28T02:20:10.684Z,15.82
2022-07-28T02:22:19.487Z,14.45
2022-07-28T02:24:29.349Z,15.02
2022-07-28T02:26:39.859Z,15.32
2022-07-28T02:28:48.124Z,18.42
2022-07-28T02:31:01.171Z,14.20
2022-07-28T02:33:15.543Z,14.02
2022-07-28T02:35:37.522Z,15.48
2022-07-28T02:37:50.874Z,12.73
2022-07-28T02:40:00.831Z,17.35
2022-07-28T02:42:12.727Z,14.13
2022-07-28T02:44:25.081Z,14.45
2022-07-28T02:46:39.323Z,13.23
2022-07-28T02:48:52.825Z,13.27
2022-07-28T02:51:01.478Z,12.88
2022-07-28T02:53:15.166Z,13.32
2022-07-28T02:55:23.362Z,12.57
2022-07-28T02:57:31.466Z,12.82
2022-07-28T02:59:40.542Z,12.35
2022-07-28T03:01:48.522Z,15.70
2022-07-28T03:03:57.778Z,12.98
2022-07-28T03:06:05.420Z,13.20
2022-07-28T03:08:13.300Z,14.48
2022-07-28T03:10:34.197Z,13.40
2022-07-28T03:12:42.170Z,12.18
2022-07-28T03:14:49.208Z,11.85
2022-07-28T03:16:56.524Z,14.00
2022-07-28T03:19:05.698Z,12.52
2022-07-28T03:21:13.002Z,13.90
2022-07-28T03:23:20.860Z,12.40
2022-07-28T03:25:33.247Z,13.82
2022-07-28T03:27:44.126Z,11.93
2022-07-28T03:29:59.115Z,11.32
2022-07-28T03:32:09.794Z,13.40
2022-07-28T03:34:19.018Z,12.90
2022-07-28T03:36:32.810Z,13.77
2022-07-28T03:38:44.850Z,12.13
2022-07-28T03:40:53.581Z,11.82
2022-07-28T03:43:05.100Z,10.65
2022-07-28T03:45:13.667Z,10.00
2022-07-28T03:47:25.721Z,11.02
2022-07-28T03:49:34.689Z,11.25
2022-07-28T03:51:41.973Z,11.05
2022-07-28T03:53:49.771Z,9.52
2022-07-28T03:55:57.689Z,10.55
2022-07-28T03:58:04.488Z,10.15
2022-07-28T04:00:13.111Z,9.65
2022-07-28T04:02:20.247Z,10.05
2022-07-28T04:04:27.376Z,9.93
2022-07-28T04:06:36.183Z,10.23
2022-07-28T04:08:43.206Z,9.77
2022-07-28T04:10:50.664Z,9.32
2022-07-28T04:12:59.784Z,10.38
2022-07-28T04:15:07.009Z,9.75
2022-07-28T04:17:16.140Z,9.82
2022-07-28T04:19:22.864Z,9.48
2022-07-28T04:21:30.052Z,9.55
2022-07-28T04:23:38.914Z,9.65
2022-07-28T04:25:46.090Z,11.23
2022-07-28T04:27:53.631Z,9.68
2022-07-28T04:30:00.812Z,10.52
2022-07-28T04:32:08.608Z,11.80
2022-07-28T04:34:16.540Z,9.77
2022-07-28T04:36:24.418Z,10.60
2022-07-28T04:38:31.541Z,9.57
2022-07-28T04:40:40.565Z,9.07
2022-07-28T04:42:47.795Z,9.25
2022-07-28T04:44:55.485Z,9.52
2022-07-28T04:47:02.718Z,8.63
2022-07-28T04:49:13.603Z,8.25
2022-07-28T04:51:20.985Z,8.98
2022-07-28T04:53:29.594Z,8.13
2022-07-28T04:55:36.987Z,7.65
2022-07-28T04:57:47.397Z,8.07
2022-07-28T04:59:56.726Z,8.02
2022-07-28T05:02:03.700Z,8.88
2022-07-28T05:04:11.675Z,8.48
2022-07-28T05:06:19.706Z,8.07
2022-07-28T05:08:27.856Z,8.07
2022-07-28T05:10:35.083Z,10.05
2022-07-28T05:12:42.824Z,8.95
2022-07-28T05:14:51.593Z,9.10
2022-07-28T05:16:59.024Z,12.25
2022-07-28T05:19:06.314Z,12.07
2022-07-28T05:21:14.011Z,13.60
2022-07-28T05:23:22.323Z,11.73
2022-07-28T05:25:29.855Z,12.95
2022-07-28T05:27:37.057Z,13.25
2022-07-28T05:29:47.079Z,11.07
2022-07-28T05:31:57.254Z,10.35
2022-07-28T05:34:04.584Z,9.45
2022-07-28T05:36:14.519Z,10.23
2022-07-28T05:38:22.019Z,9.52
2022-07-28T05:40:29.599Z,9.13
2022-07-28T05:42:38.474Z,8.52
2022-07-28T05:44:45.908Z,8.82
2022-07-28T05:46:52.987Z,9.57
2022-07-28T05:49:01.708Z,9.50
2022-07-28T05:51:09.300Z,9.20
2022-07-28T05:53:16.385Z,9.82
2022-07-28T05:55:24.019Z,8.55
2022-07-28T05:57:31.096Z,9.30
2022-07-28T05:59:38.229Z,8.98
2022-07-28T06:01:45.306Z,7.32
2022-07-28T06:04:10.104Z,8.75
2022-07-28T06:06:23.581Z,8.40
2022-07-28T06:08:30.968Z,7.90
2022-07-28T06:10:51.780Z,7.85
2022-07-28T06:12:59.818Z,8.68
2022-07-28T06:15:07.515Z,9.75
2022-07-28T06:17:16.041Z,8.55
2022-07-28T06:19:23.932Z,8.60
2022-07-28T06:21:33.984Z,8.40
2022-07-28T06:23:41.156Z,7.93
2022-07-28T06:25:48.337Z,8.35
2022-07-28T06:27:57.622Z,7.57
2022-07-28T06:30:04.698Z,7.88
2022-07-28T06:32:12.194Z,6.93
2022-07-28T06:34:19.631Z,6.90
2022-07-28T06:36:32.131Z,7.22
2022-07-28T06:38:39.472Z,6.63
2022-07-28T06:40:47.226Z,6.72
2022-07-28T06:42:54.395Z,6.13
2022-07-28T06:45:01.841Z,7.32
2022-07-28T06:47:08.958Z,7.82
2022-07-28T06:49:16.647Z,11.77
2022-07-28T06:51:24.450Z,7.00
2022-07-28T06:53:34.726Z,6.75
2022-07-28T06:55:42.147Z,7.90
2022-07-28T06:57:58.550Z,7.00
2022-07-28T07:00:07.920Z,7.50
2022-07-28T07:02:15.371Z,6.47
2022-07-28T07:04:24.567Z,7.50
2022-07-28T07:06:31.924Z,7.10
2022-07-28T07:08:41.049Z,6.80
2022-07-28T07:10:48.546Z,8.05
2022-07-28T07:12:55.849Z,6.93
2022-07-28T07:15:03.222Z,7.20
2022-07-28T07:17:10.236Z,6.53
2022-07-28T07:19:17.317Z,7.00
2022-07-28T07:21:24.405Z,6.72
2022-07-28T07:23:33.839Z,7.38
2022-07-28T07:25:43.218Z,6.68
2022-07-28T07:27:50.917Z,6.65
2022-07-28T07:29:57.841Z,6.55
2022-07-28T07:32:10.384Z,6.43
2022-07-28T07:34:18.126Z,6.40
2022-07-28T07:36:25.472Z,7.47
2022-07-28T07:38:32.914Z,6.15
2022-07-28T07:40:41.895Z,6.60
2022-07-28T07:42:49.172Z,6.45
2022-07-28T07:44:56.601Z,6.97
2022-07-28T07:47:04.026Z,6.25
2022-07-28T07:49:11.279Z,6.32
2022-07-28T07:51:18.774Z,6.80
2022-07-28T07:53:25.954Z,6.30
2022-07-28T07:55:36.166Z,6.13
2022-07-28T07:57:47.220Z,6.55
2022-07-28T07:59:54.399Z,6.10
2022-07-28T08:02:01.936Z,5.63
2022-07-28T08:04:09.614Z,6.03
2022-07-28T08:06:17.123Z,6.45
2022-07-28T08:08:38.559Z,5.55
2022-07-28T08:10:52.187Z,5.00
2022-07-28T08:13:01.552Z,9.15
2022-07-28T08:15:10.118Z,5.40
2022-07-28T08:17:19.963Z,5.85
2022-07-28T08:19:29.655Z,5.80
2022-07-28T08:21:37.140Z,5.18
2022-07-28T08:23:44.221Z,5.68
2022-07-28T08:25:51.669Z,5.18
2022-07-28T08:28:00.530Z,6.00
2022-07-28T08:30:09.093Z,5.47
2022-07-28T08:32:16.635Z,6.78
2022-07-28T08:34:31.489Z,5.18
2022-07-28T08:36:40.878Z,4.90
2022-07-28T08:38:48.684Z,5.18
2022-07-28T08:40:58.629Z,5.07
2022-07-28T08:43:17.231Z,6.10
2022-07-28T08:45:25.586Z,5.47
2022-07-28T08:48:07.909Z,4.43
2022-07-28T08:50:05.394Z,4.97
2022-07-28T08:52:15.393Z,4.93
2022-07-28T08:54:26.214Z,5.45
2022-07-28T08:56:34.870Z,4.93
2022-07-28T08:58:44.149Z,5.03
2022-07-28T09:00:52.072Z,5.57
2022-07-28T09:03:00.384Z,6.07
2022-07-28T09:05:08.883Z,5.22
2022-07-28T09:07:16.471Z,5.13
2022-07-28T09:09:24.459Z,6.28
2022-07-28T09:11:32.460Z,4.88
2022-07-28T09:13:39.748Z,4.95
2022-07-28T09:15:49.039Z,6.20
2022-07-28T09:17:56.729Z,4.85
2022-07-28T09:20:10.412Z,5.93
2022-07-28T09:22:18.304Z,5.75
2022-07-28T09:24:41.048Z,5.78
2022-07-28T09:27:04.112Z,5.82
2022-07-28T09:29:11.285Z,5.55
2022-07-28T09:31:20.553Z,4.90
2022-07-28T09:33:42.962Z,6.10
2022-07-28T09:35:53.615Z,5.65
2022-07-28T09:38:03.672Z,4.57
2022-07-28T09:40:16.582Z,4.75
2022-07-28T09:42:24.441Z,4.25
2022-07-28T09:44:32.384Z,4.60
2022-07-28T09:46:41.687Z,5.72
2022-07-28T09:49:00.228Z,5.43
2022-07-28T09:51:16.450Z,5.70
2022-07-28T09:53:28.654Z,6.47
2022-07-28T09:55:37.060Z,6.15
2022-07-28T09:57:46.043Z,7.25
2022-07-28T09:59:55.720Z,6.13
2022-07-28T10:02:05.466Z,5.95
2022-07-28T10:04:14.847Z,5.80
2022-07-28T10:06:30.686Z,6.68
2022-07-28T10:08:45.607Z,6.95
2022-07-28T10:11:05.636Z,8.00
2022-07-28T10:13:12.880Z,5.68
2022-07-28T10:15:34.797Z,6.63
2022-07-28T10:17:44.337Z,6.93
2022-07-28T10:19:53.097Z,5.97
2022-07-28T10:22:02.271Z,7.07
2022-07-28T10:24:12.320Z,5.65
2022-07-28T10:26:20.989Z,7.72
2022-07-28T10:28:29.100Z,6.15
2022-07-28T10:30:42.313Z,7.47
2022-07-28T10:32:51.339Z,9.63
2022-07-28T10:35:06.060Z,7.95
2022-07-28T10:37:17.121Z,8.60
2022-07-28T10:39:27.176Z,7.40
2022-07-28T10:41:42.290Z,6.13
2022-07-28T10:43:51.166Z,7.30
2022-07-28T10:46:07.522Z,7.03
2022-07-28T10:48:18.374Z,6.68
2022-07-28T10:50:26.019Z,8.55
2022-07-28T10:52:52.528Z,9.13
2022-07-28T10:55:10.290Z,6.95
2022-07-28T10:57:18.778Z,10.05
2022-07-28T10:59:44.929Z,9.68
2022-07-28T11:01:52.357Z,7.70
2022-07-28T11:04:01.410Z,7.38
2022-07-28T11:06:29.603Z,6.85
2022-07-28T11:08:37.046Z,6.18
2022-07-28T11:10:49.303Z,7.82
2022-07-28T11:12:58.530Z,7.53
2022-07-28T11:15:26.080Z,8.82
2022-07-28T11:17:34.725Z,8.77
2022-07-28T11:22:34.886Z,6.72
2022-07-28T11:25:20.304Z,9.45
2022-07-28T11:28:03.497Z,9.40
2022-07-28T11:30:11.090Z,14.25
2022-07-28T11:32:18.465Z,16.48
2022-07-28T11:34:27.695Z,14.57
2022-07-28T11:37:15.591Z,14.63
2022-07-28T11:39:31.628Z,15.50
2022-07-28T11:41:51.195Z,11.75
2022-07-28T11:44:00.123Z,10.77
2022-07-28T11:46:40.866Z,11.10
2022-07-28T11:48:48.461Z,13.10
2022-07-28T11:51:13.593Z,13.45
2022-07-28T11:53:21.063Z,10.52
2022-07-28T11:55:55.322Z,11.18
2022-07-28T11:57:58.981Z,11.52
2022-07-28T12:00:08.259Z,13.88
2022-07-28T12:02:20.136Z,11.48
2022-07-28T12:04:31.516Z,12.77
2022-07-28T12:06:40.261Z,14.35
2022-07-28T12:08:57.831Z,15.93
2022-07-28T12:11:06.697Z,13.40
2022-07-28T12:13:14.133Z,14.32
2022-07-28T12:15:21.828Z,14.73
2022-07-28T12:17:36.957Z,14.57
2022-07-28T12:19:48.333Z,14.43
2022-07-28T12:21:57.812Z,11.32
2022-07-28T12:24:04.898Z,16.10
2022-07-28T12:26:14.426Z,13.63
2022-07-28T12:28:23.663Z,18.50
2022-07-28T12:30:33.805Z,17.05
2022-07-28T12:32:42.113Z,16.58
2022-07-28T12:34:50.179Z,18.55
2022-07-28T12:36:58.170Z,17.35
2022-07-28T12:39:09.482Z,15.77
2022-07-28T12:41:22.629Z,16.50
2022-07-28T12:43:33.181Z,15.52
2022-07-28T12:45:49.038Z,17.13
2022-07-28T12:47:56.930Z,18.10
2022-07-28T12:50:15.266Z,18.35
2022-07-28T12:52:23.726Z,19.35
2022-07-28T12:54:40.993Z,15.95
2022-07-28T12:56:54.569Z,17.50
2022-07-28T12:59:10.103Z,18.55
2022-07-28T13:01:17.205Z,21.27
2022-07-28T13:03:25.743Z,26.52
2022-07-28T13:05:55.098Z,21.60
2022-07-28T13:08:03.673Z,24.50
2022-07-28T13:10:14.185Z,26.02
2022-07-28T13:12:24.833Z,24.48
2022-07-28T13:14:44.764Z,24.58
2022-07-28T13:17:01.971Z,23.38
2022-07-28T13:19:11.200Z,23.08
2022-07-28T13:21:18.590Z,21.15
2022-07-28T13:23:26.285Z,22.63
2022-07-28T13:25:33.360Z,17.80
2022-07-28T13:27:42.079Z,16.92
2022-07-28T13:29:49.360Z,13.55
2022-07-28T13:31:58.825Z,14.10
2022-07-28T13:34:06.443Z,17.98
2022-07-28T13:36:13.877Z,13.82
2022-07-28T13:38:25.156Z,13.80
2022-07-28T13:40:32.193Z,11.30
2022-07-28T13:42:41.567Z,13.02
2022-07-28T13:45:00.785Z,12.07
2022-07-28T13:47:09.660Z,13.35
2022-07-28T13:49:17.225Z,12.30
2022-07-28T13:53:34.885Z,12.73
2022-07-28T13:55:42.066Z,10.40
2022-07-28T13:57:51.506Z,12.77
2022-07-28T13:59:58.833Z,11.82
2022-07-28T14:02:06.118Z,11.52
2022-07-28T14:04:23.212Z,10.73
2022-07-28T14:06:30.679Z,12.43
2022-07-28T14:08:38.526Z,13.55
2022-07-28T14:10:49.029Z,13.50
2022-07-28T14:12:58.260Z,13.50
2022-07-28T14:15:06.054Z,16.77
2022-07-28T14:17:40.108Z,11.27
2022-07-28T14:19:40.895Z,12.55
2022-07-28T14:21:51.762Z,11.25
2022-07-28T14:23:59.051Z,12.07
2022-07-28T14:26:33.260Z,11.48
2022-07-28T14:28:35.278Z,10.65
2022-07-28T14:30:42.915Z,10.93
2022-07-28T14:32:50.712Z,13.63
2022-07-28T14:34:58.094Z,10.27
2022-07-28T14:37:09.300Z,12.98
2022-07-28T14:39:17.018Z,10.60
2022-07-28T14:41:24.458Z,11.20
2022-07-28T14:43:31.838Z,11.45
2022-07-28T14:46:00.560Z,10.68
2022-07-28T14:48:08.938Z,12.02
2022-07-28T14:50:16.078Z,11.98
2022-07-28T14:52:23.453Z,11.25
2022-07-28T14:54:31.563Z,12.35
2022-07-28T14:56:39.252Z,12.52
2022-07-28T14:58:46.484Z,13.57
2022-07-28T15:00:55.892Z,11.75
2022-07-28T15:03:03.123Z,12.30
2022-07-28T15:05:11.458Z,10.18
2022-07-28T15:07:18.550Z,10.18
2022-07-28T15:09:25.975Z,10.95
2022-07-28T15:11:33.208Z,10.52
2022-07-28T15:13:40.195Z,11.70
2022-07-28T15:15:47.817Z,11.68
2022-07-28T15:17:57.881Z,10.90
2022-07-28T15:20:07.106Z,10.70
2022-07-28T15:22:14.139Z,9.02
2022-07-28T15:24:23.375Z,12.75
2022-07-28T15:26:30.852Z,10.00
2022-07-28T15:28:38.397Z,10.68
2022-07-28T15:30:52.697Z,10.82
2022-07-28T15:33:02.847Z,11.23
2022-07-28T15:35:10.752Z,10.50
2022-07-28T15:37:18.177Z,9.73
2022-07-28T15:39:25.973Z,10.35
2022-07-28T15:41:38.273Z,9.77
2022-07-28T15:43:46.787Z,11.35
2022-07-28T15:45:54.233Z,11.10
2022-07-28T15:48:04.224Z,9.90
2022-07-28T15:50:11.915Z,9.43
2022-07-28T15:52:20.071Z,10.30
2022-07-28T15:54:27.509Z,10.77
2022-07-28T15:56:36.438Z,12.45
2022-07-28T15:58:43.978Z,11.95
2022-07-28T16:00:51.211Z,12.98
2022-07-28T16:03:00.066Z,13.27
2022-07-28T16:05:09.661Z,12.07
2022-07-28T16:07:24.333Z,13.60
2022-07-28T16:09:45.301Z,10.98
2022-07-28T16:11:54.407Z,13.82
2022-07-28T16:14:01.643Z,12.25
2022-07-28T16:16:11.074Z,10.98
2022-07-28T16:18:19.071Z,13.60
2022-07-28T16:20:28.611Z,10.55
2022-07-28T16:22:38.759Z,10.30
2022-07-28T16:24:46.041Z,10.02
2022-07-28T16:26:53.742Z,11.18
2022-07-28T16:29:00.926Z,13.52
2022-07-28T16:31:08.551Z,10.70
2022-07-28T16:33:15.694Z,10.00
2022-07-28T16:35:23.343Z,13.63
2022-07-28T16:37:32.509Z,10.70
2022-07-28T16:39:40.008Z,10.52
2022-07-28T16:41:48.340Z,10.35
2022-07-28T16:43:57.024Z,12.55
2022-07-28T16:46:05.001Z,10.68
2022-07-28T16:48:12.511Z,10.55
2022-07-28T16:50:20.107Z,10.65
2022-07-28T16:52:28.626Z,12.95
2022-07-28T16:54:38.513Z,10.27
2022-07-28T16:56:46.362Z,10.27
2022-07-28T16:58:53.598Z,10.55
2022-07-28T17:01:00.827Z,11.35
2022-07-28T17:03:11.030Z,11.55
2022-07-28T17:05:18.778Z,13.63
2022-07-28T17:07:26.005Z,9.68
2022-07-28T17:09:33.545Z,10.75
2022-07-28T17:11:43.752Z,10.10
2022-07-28T17:13:51.134Z,9.35
2022-07-28T17:16:00.981Z,12.38
2022-07-28T17:18:08.584Z,9.80
2022-07-28T17:20:17.760Z,9.95
2022-07-28T17:22:25.237Z,10.10
2022-07-28T17:24:32.379Z,10.55
2022-07-28T17:29:08.539Z,10.10
2022-07-28T17:31:15.962Z,11.32
2022-07-28T17:33:23.063Z,11.35
2022-07-28T17:35:34.795Z,10.95
2022-07-28T17:37:42.644Z,11.73
2022-07-28T17:39:49.930Z,12.25
2022-07-28T17:41:59.017Z,10.00
2022-07-28T17:44:06.801Z,10.27
2022-07-28T17:46:14.058Z,10.25
2022-07-28T17:48:22.445Z,10.35
2022-07-28T17:50:30.138Z,10.48
2022-07-28T17:52:37.423Z,9.68
2022-07-28T17:55:00.882Z,11.07
2022-07-28T17:57:11.608Z,10.65
2022-07-28T17:59:18.986Z,12.27
2022-07-28T18:01:26.596Z,12.15
2022-07-28T18:03:56.425Z,12.50
2022-07-28T18:06:01.476Z,12.65
2022-07-28T18:08:09.638Z,11.43
2022-07-28T18:10:17.434Z,10.40
2022-07-28T18:12:33.727Z,14.25
2022-07-28T18:14:41.260Z,12.98
2022-07-28T18:16:48.449Z,15.50
2022-07-28T18:18:55.479Z,15.18
2022-07-28T18:21:02.799Z,13.43
2022-07-28T18:23:10.596Z,14.90
2022-07-28T18:25:17.789Z,15.48
2022-07-28T18:27:24.912Z,15.68
2022-07-28T18:29:38.257Z,12.10
2022-07-28T18:31:46.954Z,11.60
2022-07-28T18:33:54.908Z,13.10
2022-07-28T18:36:02.185Z,13.07
2022-07-28T18:38:09.774Z,12.52
2022-07-28T18:40:18.552Z,12.18
2022-07-28T18:42:26.096Z,13.88
2022-07-28T18:44:35.625Z,14.50
2022-07-28T18:46:43.085Z,11.63
2022-07-28T18:48:53.707Z,14.82
2022-07-28T18:51:04.127Z,12.70
2022-07-28T18:53:11.068Z,13.77
2022-07-28T18:55:21.821Z,15.52
2022-07-28T18:57:29.105Z,13.95
2022-07-28T18:59:43.249Z,11.32
2022-07-28T19:01:51.842Z,11.57
2022-07-28T19:03:59.160Z,13.18
2022-07-28T19:06:06.444Z,13.48
2022-07-28T19:08:13.971Z,10.43
2022-07-28T19:10:21.114Z,12.30
2022-07-28T19:12:32.230Z,16.45
2022-07-28T19:14:41.924Z,11.53
2022-07-28T19:16:49.262Z,14.05
2022-07-28T19:18:56.231Z,13.90
2022-07-28T19:21:03.615Z,13.77
2022-07-28T19:23:10.656Z,12.77
2022-07-28T19:25:17.876Z,13.18
2022-07-28T19:27:26.249Z,12.27
2022-07-28T19:31:46.638Z,15.73
2022-07-28T19:33:53.872Z,11.95
2022-07-28T19:36:01.326Z,10.60
2022-07-28T19:38:08.493Z,11.65
2022-07-28T19:40:15.785Z,12.07
2022-07-28T19:42:22.907Z,10.57
2022-07-28T19:44:32.252Z,12.32
2022-07-28T19:46:39.819Z,10.90
2022-07-28T19:48:49.001Z,13.13
2022-07-28T19:50:57.519Z,12.68
2022-07-28T19:53:05.271Z,14.88
2022-07-28T19:55:13.120Z,16.48
2022-07-28T19:57:24.808Z,14.40
2022-07-28T19:59:31.931Z,12.07
2022-07-28T20:01:45.991Z,12.63
2022-07-28T20:04:01.515Z,12.55
2022-07-28T20:06:12.010Z,12.30
2022-07-28T20:08:19.599Z,14.48
2022-07-28T20:10:26.846Z,12.63
2022-07-28T20:12:36.650Z,12.35
2022-07-28T20:14:44.427Z,12.32
2022-07-28T20:16:51.820Z,15.38
2022-07-28T20:19:01.203Z,12.20
2022-07-28T20:21:08.526Z,12.43
2022-07-28T20:23:15.716Z,12.45
2022-07-28T20:25:23.052Z,12.65
2022-07-28T20:27:30.173Z,12.80
2022-07-28T20:29:37.711Z,13.80
2022-07-28T20:31:44.854Z,13.52
2022-07-28T20:33:52.232Z,12.70
2022-07-28T20:36:01.256Z,14.25
2022-07-28T20:38:09.360Z,15.02
2022-07-28T20:40:16.645Z,14.93
2022-07-28T20:42:24.079Z,14.43
2022-07-28T20:44:31.128Z,14.27
2022-07-28T20:46:38.710Z,12.55
2022-07-28T20:48:45.756Z,13.52
2022-07-28T20:53:21.099Z,12.95
2022-07-28T20:55:29.288Z,17.45
2022-07-28T20:57:36.519Z,14.70
2022-07-28T20:59:44.726Z,13.02
2022-07-28T21:01:52.004Z,14.65
2022-07-28T21:03:59.142Z,12.77
2022-07-28T21:06:06.782Z,12.95
2022-07-28T21:08:16.311Z,14.23
2022-07-28T21:10:26.367Z,15.45
2022-07-28T21:12:33.498Z,15.13
2022-07-28T21:14:41.096Z,14.07
2022-07-28T21:16:48.060Z,15.25
2022-07-28T21:18:55.309Z,14.57
2022-07-28T21:21:02.582Z,13.70
2022-07-28T21:23:10.074Z,16.30
2022-07-28T21:25:17.252Z,14.32
2022-07-28T21:27:26.492Z,18.17
2022-07-28T21:29:32.700Z,13.88
2022-07-28T21:32:05.213Z,13.23
2022-07-28T21:34:07.433Z,15.27
2022-07-28T21:36:15.279Z,13.73
2022-07-28T21:38:22.934Z,15.32
2022-07-28T21:40:30.413Z,13.07
2022-07-28T21:42:39.383Z,13.90
2022-07-28T21:44:46.780Z,14.63
2022-07-28T21:46:53.911Z,14.48
2022-07-28T21:49:03.011Z,13.52
2022-07-28T21:51:18.258Z,14.35
2022-07-28T21:53:26.559Z,14.27
2022-07-28T21:55:33.903Z,16.98
2022-07-28T21:57:42.973Z,14.70
2022-07-28T21:59:50.362Z,12.88
2022-07-28T22:01:57.489Z,13.57
2022-07-28T22:04:04.724Z,15.13
2022-07-28T22:06:12.001Z,12.63
2022-07-28T22:08:19.087Z,17.13
2022-07-28T22:10:27.654Z,16.60
2022-07-28T22:12:34.894Z,14.60
2022-07-28T22:14:44.007Z,15.73
2022-07-28T22:16:51.637Z,15.32
2022-07-28T22:18:58.983Z,19.73
2022-07-28T22:21:06.318Z,16.65
2022-07-28T22:23:29.009Z,16.52
2022-07-28T22:25:37.634Z,15.20
2022-07-28T22:27:44.915Z,14.95
2022-07-28T22:29:54.192Z,17.05
2022-07-28T22:32:01.388Z,16.80
2022-07-28T22:34:08.919Z,20.67
2022-07-28T22:36:16.095Z,15.20
2022-07-28T22:38:23.482Z,14.05
2022-07-28T22:40:30.460Z,17.35
2022-07-28T22:42:37.695Z,15.13
2022-07-28T22:44:45.077Z,15.18
2022-07-28T22:46:53.898Z,14.95
2022-07-28T22:49:01.450Z,14.38
2022-07-28T22:51:13.751Z,15.93
2022-07-28T22:53:21.077Z,17.52
2022-07-28T22:55:28.419Z,16.95
2022-07-28T22:57:35.696Z,14.57
2022-07-28T22:59:43.246Z,15.60
2022-07-28T23:02:00.146Z,15.15
2022-07-28T23:04:07.677Z,14.18
2022-07-28T23:06:15.237Z,14.18
2022-07-28T23:08:22.315Z,14.60
2022-07-28T23:10:30.012Z,15.35
2022-07-28T23:12:37.029Z,14.40
2022-07-28T23:14:44.412Z,14.68
2022-07-28T23:16:51.388Z,14.48
2022-07-28T23:19:00.479Z,15.07
2022-07-28T23:21:08.515Z,16.67
2022-07-28T23:23:19.492Z,23.73
2022-07-28T23:25:26.934Z,25.48
2022-07-28T23:27:34.220Z,27.58
2022-07-28T23:29:41.402Z,22.90
2022-07-28T23:31:48.848Z,21.25
2022-07-28T23:33:57.654Z,21.73
2022-07-28T23:36:16.849Z,17.92
2022-07-28T23:38:34.512Z,20.15
2022-07-28T23:40:41.682Z,16.60
2022-07-28T23:42:48.653Z,16.80
2022-07-28T23:44:55.879Z,17.40
2022-07-28T23:47:02.992Z,19.70
2022-07-28T23:49:10.345Z,19.38
2022-07-28T23:51:19.321Z,19.58
2022-07-28T23:53:26.552Z,18.40
2022-07-28T23:55:33.631Z,18.95
2022-07-28T23:57:41.019Z,19.58
2022-07-28T23:59:48.096Z,17.85
